Time;durP1;ratioP1;P1;durP2;ratioP2;P2;SDS_P1;SDS_P2;PMS_P1;PMS_P2;Temp;Humidity;BMP_temperature;BMP_pressure;BME280_temperature;BME280_humidity;BME280_pressure;Samples;Min_cycle;Max_cycle;Signal;HPM_P1;HPM_P2
2021/09/08 00:01:01;;;;;;;7.93;5.85;;;23.50;99.90;;;;;;5032295;28;20203;-80
2021/09/08 00:03:28;;;;;;;7.63;5.45;;;23.50;99.90;;;;;;5031493;28;20257;-82
2021/09/08 00:05:55;;;;;;;5.38;4.95;;;23.60;99.90;;;;;;5032329;28;20557;-81
2021/09/08 00:08:23;;;;;;;5.93;5.38;;;23.60;99.90;;;;;;5031829;28;20281;-79
2021/09/08 00:10:50;;;;;;;6.10;5.55;;;23.60;99.90;;;;;;5032037;28;20686;-79
2021/09/08 00:13:17;;;;;;;6.18;5.68;;;23.60;99.90;;;;;;5032082;28;20199;-74
2021/09/08 00:15:44;;;;;;;5.68;5.18;;;23.50;99.90;;;;;;5031940;28;20247;-78
2021/09/08 00:18:13;;;;;;;7.15;6.30;;;23.50;99.90;;;;;;5032401;28;20330;-87
2021/09/08 00:20:40;;;;;;;8.75;5.57;;;23.50;99.90;;;;;;5031951;28;20335;-84
2021/09/08 00:23:07;;;;;;;8.15;6.53;;;23.50;99.90;;;;;;5032016;28;20655;-79
2021/09/08 00:25:34;;;;;;;7.35;6.43;;;23.40;99.90;;;;;;5031693;28;20211;-82
2021/09/08 00:28:01;;;;;;;7.32;5.07;;;23.40;99.90;;;;;;5031799;28;20239;-77
2021/09/08 00:30:28;;;;;;;5.30;4.80;;;23.40;99.90;;;;;;5029696;28;20203;-73
2021/09/08 00:32:55;;;;;;;7.18;5.72;;;23.40;99.90;;;;;;5031555;28;20736;-74
2021/09/08 00:35:24;;;;;;;7.55;5.32;;;23.50;99.90;;;;;;5031134;28;20625;-74
2021/09/08 00:37:51;;;;;;;7.97;5.63;;;23.50;99.90;;;;;;5031672;28;20227;-73
2021/09/08 00:40:18;;;;;;;6.55;5.45;;;23.50;99.90;;;;;;5031151;28;20257;-74
2021/09/08 00:42:45;;;;;;;5.47;5.07;;;23.40;99.90;;;;;;5031860;28;20269;-79
2021/09/08 00:45:13;;;;;;;5.82;4.80;;;23.50;99.90;;;;;;5031898;28;20261;-77
2021/09/08 00:47:41;;;;;;;5.28;4.85;;;23.40;99.90;;;;;;5031619;28;20318;-81
2021/09/08 00:50:09;;;;;;;8.18;6.43;;;23.40;99.90;;;;;;5031089;28;20273;-79
2021/09/08 00:52:40;;;;;;;6.25;5.25;;;23.40;99.90;;;;;;5031329;28;20342;-76
2021/09/08 00:55:08;;;;;;;6.10;5.57;;;23.40;99.90;;;;;;5031343;28;20269;-75
2021/09/08 00:57:35;;;;;;;6.00;5.30;;;23.40;99.90;;;;;;5031022;28;20675;-74
2021/09/08 01:00:03;;;;;;;6.45;5.55;;;23.40;99.90;;;;;;5031273;28;20285;-83
2021/09/08 01:02:30;;;;;;;7.95;5.30;;;23.40;99.90;;;;;;5030998;28;20562;-85
2021/09/08 01:04:57;;;;;;;6.00;5.43;;;23.40;99.90;;;;;;5031535;28;20250;-87
2021/09/08 01:07:24;;;;;;;9.30;6.30;;;23.40;99.90;;;;;;5031111;28;20234;-78
2021/09/08 01:09:53;;;;;;;6.15;5.50;;;23.40;99.90;;;;;;5031434;28;20234;-81
2021/09/08 01:12:20;;;;;;;6.45;5.95;;;23.30;99.90;;;;;;5030764;28;20214;-82
2021/09/08 01:14:47;;;;;;;9.80;7.50;;;23.40;99.90;;;;;;5030276;28;20207;-83
2021/09/08 01:17:17;;;;;;;6.78;5.38;;;23.40;99.90;;;;;;5030793;28;20204;-79
2021/09/08 01:19:44;;;;;;;6.03;5.50;;;23.40;99.90;;;;;;5031155;28;20211;-80
2021/09/08 01:22:11;;;;;;;6.18;5.40;;;23.40;99.90;;;;;;5031575;28;20203;-76
2021/09/08 01:24:42;;;;;;;6.35;5.32;;;23.40;99.90;;;;;;5030845;28;20208;-79
2021/09/08 01:27:09;;;;;;;5.78;5.28;;;23.40;99.90;;;;;;5031297;28;20269;-79
2021/09/08 01:29:36;;;;;;;5.85;5.35;;;23.30;99.90;;;;;;5030186;28;20203;-76
2021/09/08 01:32:03;;;;;;;6.03;4.95;;;23.30;99.90;;;;;;5030706;28;20227;-79
2021/09/08 01:34:30;;;;;;;6.53;5.82;;;23.30;99.90;;;;;;5030381;28;20254;-79
2021/09/08 01:36:57;;;;;;;7.43;5.88;;;23.30;99.90;;;;;;5031038;28;20269;-75
2021/09/08 01:39:24;;;;;;;5.60;5.20;;;23.30;99.90;;;;;;5029879;28;20211;-78
2021/09/08 01:41:53;;;;;;;6.88;6.10;;;23.30;99.90;;;;;;5030899;28;20207;-80
2021/09/08 01:44:22;;;;;;;6.68;5.43;;;23.30;99.90;;;;;;5030109;28;20211;-80
2021/09/08 01:46:51;;;;;;;6.75;5.10;;;23.30;99.90;;;;;;5030316;28;20772;-74
2021/09/08 01:49:18;;;;;;;6.32;5.78;;;23.20;99.90;;;;;;5030461;28;20281;-75
2021/09/08 01:51:45;;;;;;;6.28;5.70;;;23.20;99.90;;;;;;5030569;28;20265;-78
2021/09/08 01:54:12;;;;;;;6.60;5.63;;;23.30;99.90;;;;;;5031152;28;20261;-79
2021/09/08 01:56:39;;;;;;;6.80;5.75;;;23.30;99.90;;;;;;5030151;28;20215;-78
2021/09/08 01:59:08;;;;;;;6.63;6.03;;;23.30;99.90;;;;;;5030960;28;20215;-86
2021/09/08 02:01:35;;;;;;;8.60;5.45;;;23.30;99.90;;;;;;5030698;28;20261;-78
2021/09/08 02:04:02;;;;;;;6.07;5.55;;;23.30;99.90;;;;;;5030307;28;20755;-77
2021/09/08 02:06:29;;;;;;;6.80;6.10;;;23.30;99.90;;;;;;5029930;28;20671;-76
2021/09/08 02:08:58;;;;;;;7.82;6.60;;;23.30;99.90;;;;;;5030039;28;20588;-76
2021/09/08 02:11:25;;;;;;;6.57;5.93;;;23.30;99.90;;;;;;5030098;28;20257;-75
2021/09/08 02:13:55;;;;;;;9.75;6.32;;;23.20;99.90;;;;;;5027030;28;20253;-73
2021/09/08 02:16:23;;;;;;;5.82;5.38;;;23.20;99.90;;;;;;5020384;28;20631;-73
2021/09/08 02:18:51;;;;;;;6.60;5.97;;;23.20;99.90;;;;;;5029904;28;20741;-73
2021/09/08 02:21:19;;;;;;;6.07;5.63;;;23.20;99.90;;;;;;5020973;28;20634;-74
2021/09/08 02:23:46;;;;;;;6.65;6.10;;;23.20;99.90;;;;;;5030248;28;20623;-75
2021/09/08 02:26:13;;;;;;;6.75;6.15;;;23.20;99.90;;;;;;5033666;28;20203;-74
2021/09/08 02:28:41;;;;;;;6.20;5.60;;;23.20;99.90;;;;;;5034061;28;20308;-78
2021/09/08 02:31:09;;;;;;;7.63;5.90;;;23.30;99.90;;;;;;5021012;28;20204;-78
2021/09/08 02:33:38;;;;;;;6.40;5.60;;;23.20;99.90;;;;;;5027250;28;20591;-77
2021/09/08 02:36:06;;;;;;;7.70;5.97;;;23.30;99.90;;;;;;5034114;28;20269;-76
2021/09/08 02:38:33;;;;;;;6.60;5.95;;;23.30;99.90;;;;;;5033077;28;20218;-73
2021/09/08 02:41:05;;;;;;;6.35;5.35;;;23.30;99.90;;;;;;5034119;28;20345;-75
2021/09/08 02:43:33;;;;;;;6.10;5.53;;;23.30;99.90;;;;;;5020054;28;20282;-75
2021/09/08 02:46:02;;;;;;;6.70;5.90;;;23.30;99.90;;;;;;5034069;28;20212;-77
2021/09/08 02:48:30;;;;;;;7.43;6.15;;;23.30;99.90;;;;;;5033286;28;20289;-78
2021/09/08 02:50:58;;;;;;;6.32;5.28;;;23.30;99.90;;;;;;5033450;28;20207;-76
2021/09/08 02:53:25;;;;;;;6.50;5.90;;;23.30;99.90;;;;;;5031376;28;20250;-75
2021/09/08 02:55:52;;;;;;;7.75;5.38;;;23.30;99.90;;;;;;5042962;28;20253;-76
2021/09/08 02:58:19;;;;;;;5.55;5.05;;;23.40;99.90;;;;;;5035712;28;20257;-77
2021/09/08 03:00:46;;;;;;;6.20;5.57;;;23.30;99.90;;;;;;5032885;28;20253;-78
2021/09/08 03:03:13;;;;;;;7.68;5.88;;;23.30;99.90;;;;;;5033435;28;20215;-75
2021/09/08 03:05:40;;;;;;;5.95;5.43;;;23.30;99.90;;;;;;5033127;28;20674;-79
2021/09/08 03:08:08;;;;;;;6.20;5.63;;;23.30;99.90;;;;;;5033574;28;20227;-80
2021/09/08 03:10:35;;;;;;;10.50;5.85;;;23.30;99.90;;;;;;5045762;28;20219;-77
2021/09/08 03:13:03;;;;;;;6.03;5.43;;;23.30;99.90;;;;;;5033268;28;20207;-76
2021/09/08 03:15:30;;;;;;;6.03;5.53;;;23.20;99.90;;;;;;5032426;28;20667;-79
2021/09/08 03:17:57;;;;;;;6.65;5.03;;;23.20;99.90;;;;;;5033320;28;20634;-77
2021/09/08 03:20:24;;;;;;;8.45;5.55;;;23.30;99.90;;;;;;5032335;28;20629;-80
2021/09/08 03:22:51;;;;;;;6.20;5.75;;;23.30;99.90;;;;;;5033363;28;20207;-78
2021/09/08 03:25:19;;;;;;;6.03;5.50;;;23.20;99.90;;;;;;5031420;28;20671;-74
2021/09/08 03:27:46;;;;;;;5.90;5.30;;;23.30;99.90;;;;;;5032907;28;20262;-76
2021/09/08 03:30:14;;;;;;;5.82;5.32;;;23.30;99.90;;;;;;5032960;28;20207;-76
2021/09/08 03:32:41;;;;;;;9.65;5.40;;;23.30;99.90;;;;;;5032049;28;20207;-79
2021/09/08 03:35:09;;;;;;;9.35;5.80;;;23.30;99.90;;;;;;5033108;28;20207;-78
2021/09/08 03:37:36;;;;;;;6.60;5.93;;;23.30;99.90;;;;;;5031504;28;20223;-76
2021/09/08 03:40:05;;;;;;;6.13;5.05;;;23.30;99.90;;;;;;5032588;28;20254;-79
2021/09/08 03:42:35;;;;;;;8.73;6.93;;;23.20;99.90;;;;;;5032698;28;20211;-79
2021/09/08 03:45:03;;;;;;;7.22;6.35;;;23.20;99.90;;;;;;5032636;28;20210;-79
2021/09/08 03:47:30;;;;;;;5.65;5.15;;;23.20;99.90;;;;;;5032247;28;20231;-77
2021/09/08 03:49:57;;;;;;;6.32;5.75;;;23.20;99.90;;;;;;5032537;28;20203;-82
2021/09/08 03:52:24;;;;;;;6.40;5.63;;;23.20;99.90;;;;;;5032256;28;20253;-81
2021/09/08 03:54:51;;;;;;;6.82;5.65;;;23.20;99.90;;;;;;5032071;28;20623;-79
2021/09/08 03:57:18;;;;;;;6.40;5.70;;;23.20;99.90;;;;;;5032133;28;20637;-76
2021/09/08 03:59:46;;;;;;;5.95;5.45;;;23.20;99.90;;;;;;5032160;28;20733;-76
2021/09/08 04:02:13;;;;;;;5.82;5.32;;;23.20;99.90;;;;;;5033007;28;20277;-77
2021/09/08 04:04:40;;;;;;;8.80;6.13;;;23.30;99.90;;;;;;5032548;28;20265;-79
2021/09/08 04:07:07;;;;;;;6.55;5.90;;;23.20;99.90;;;;;;5031935;28;20207;-77
2021/09/08 04:09:34;;;;;;;7.53;5.63;;;23.20;99.90;;;;;;5031737;28;20207;-78
2021/09/08 04:12:01;;;;;;;6.65;6.05;;;23.20;99.90;;;;;;5032334;28;20208;-78
2021/09/08 04:14:28;;;;;;;6.75;6.15;;;23.20;99.90;;;;;;5031896;28;20257;-75
2021/09/08 04:16:56;;;;;;;5.70;5.30;;;23.20;99.90;;;;;;5032062;28;20207;-77
2021/09/08 04:19:23;;;;;;;10.13;6.15;;;23.20;99.90;;;;;;5031724;28;20215;-79
2021/09/08 04:21:50;;;;;;;6.45;5.40;;;23.20;99.90;;;;;;5031905;28;20203;-81
2021/09/08 04:24:17;;;;;;;7.63;6.65;;;23.20;99.90;;;;;;5031437;28;20204;-76
2021/09/08 04:26:44;;;;;;;6.72;6.13;;;23.20;99.90;;;;;;5031775;28;20632;-80
2021/09/08 04:29:11;;;;;;;7.13;6.53;;;23.20;99.90;;;;;;5032078;28;20236;-78
2021/09/08 04:31:38;;;;;;;6.18;5.55;;;23.20;99.90;;;;;;5031835;28;20226;-74
2021/09/08 04:34:08;;;;;;;10.52;6.30;;;23.20;99.90;;;;;;5031461;28;20670;-78
2021/09/08 04:36:35;;;;;;;7.47;5.72;;;23.20;99.90;;;;;;5031441;28;20302;-77
2021/09/08 04:39:02;;;;;;;6.05;5.55;;;23.20;99.90;;;;;;5031252;28;20629;-80
2021/09/08 04:41:29;;;;;;;8.68;6.10;;;23.20;99.90;;;;;;5030949;28;20206;-78
2021/09/08 04:43:57;;;;;;;6.00;5.07;;;23.20;99.90;;;;;;5031904;28;20212;-80
2021/09/08 04:46:24;;;;;;;5.78;5.15;;;23.20;99.90;;;;;;5031221;28;20207;-80
2021/09/08 04:48:51;;;;;;;6.35;5.75;;;23.20;99.90;;;;;;5030698;28;20232;-79
2021/09/08 04:51:19;;;;;;;5.90;5.43;;;23.10;99.90;;;;;;5031117;28;20261;-81
2021/09/08 04:53:46;;;;;;;6.55;5.50;;;23.10;99.90;;;;;;5031684;28;20212;-75
2021/09/08 04:56:13;;;;;;;7.60;6.45;;;23.10;99.90;;;;;;5030413;28;20928;-78
2021/09/08 04:58:40;;;;;;;6.07;5.55;;;23.10;99.90;;;;;;5031593;28;20211;-78
2021/09/08 05:01:07;;;;;;;6.80;6.10;;;23.10;99.90;;;;;;5030938;28;20667;-77
2021/09/08 05:03:35;;;;;;;6.75;5.60;;;23.20;99.90;;;;;;5030619;28;20253;-76
2021/09/08 05:06:02;;;;;;;7.57;6.43;;;23.10;99.90;;;;;;5030752;28;20211;-78
2021/09/08 05:08:30;;;;;;;6.97;6.28;;;23.10;99.90;;;;;;5030891;28;20313;-77
2021/09/08 05:10:57;;;;;;;6.60;6.00;;;23.10;99.90;;;;;;5030587;28;20638;-75
2021/09/08 05:13:24;;;;;;;11.30;7.60;;;23.10;99.90;;;;;;5031165;28;20220;-76
2021/09/08 05:15:51;;;;;;;6.53;5.40;;;23.10;99.90;;;;;;5030865;28;20265;-76
2021/09/08 05:18:18;;;;;;;6.68;5.97;;;23.10;99.90;;;;;;5030979;28;20273;-78
2021/09/08 05:20:45;;;;;;;6.80;6.00;;;23.10;99.90;;;;;;5030319;28;20210;-76
2021/09/08 05:23:12;;;;;;;7.50;6.53;;;23.10;99.90;;;;;;5031409;28;20261;-76
2021/09/08 05:25:41;;;;;;;6.88;5.95;;;23.10;99.90;;;;;;5030912;28;20203;-76
2021/09/08 05:28:09;;;;;;;5.13;4.72;;;23.10;99.90;;;;;;5031153;28;20223;-78
2021/09/08 05:30:36;;;;;;;6.07;5.47;;;23.10;99.90;;;;;;5030861;28;20304;-76
2021/09/08 05:33:03;;;;;;;6.72;6.15;;;23.00;99.90;;;;;;5030582;28;20223;-75
2021/09/08 05:35:30;;;;;;;6.15;5.65;;;23.10;99.90;;;;;;5030588;28;20238;-75
2021/09/08 05:37:56;;;;;;;7.00;5.22;;;23.10;99.90;;;;;;5030310;28;20254;-77
2021/09/08 05:40:24;;;;;;;6.18;5.68;;;23.10;99.90;;;;;;5030881;28;20203;-76
2021/09/08 05:42:52;;;;;;;7.35;5.70;;;23.00;99.90;;;;;;5029995;28;20207;-77
2021/09/08 05:45:19;;;;;;;6.45;5.78;;;23.00;99.90;;;;;;5030620;28;20568;-76
2021/09/08 05:47:46;;;;;;;6.72;6.13;;;23.10;99.90;;;;;;5030111;28;20687;-78
2021/09/08 05:50:13;;;;;;;6.15;5.57;;;23.10;99.90;;;;;;5030472;28;20249;-76
2021/09/08 05:52:40;;;;;;;6.50;5.90;;;23.20;99.90;;;;;;5031024;28;20264;-78
2021/09/08 05:55:08;;;;;;;5.63;5.18;;;23.10;99.90;;;;;;5030105;28;20203;-76
2021/09/08 05:57:35;;;;;;;6.85;5.60;;;23.20;99.90;;;;;;5030672;28;20265;-74
2021/09/08 06:00:05;;;;;;;5.70;5.20;;;23.20;99.90;;;;;;5032791;28;20208;-78
2021/09/08 06:02:32;;;;;;;6.72;6.00;;;23.20;99.90;;;;;;5037143;28;20257;-76
2021/09/08 06:04:59;;;;;;;6.93;5.80;;;23.20;99.90;;;;;;5036278;28;20254;-78
2021/09/08 06:07:26;;;;;;;6.57;5.68;;;23.40;99.90;;;;;;5037130;28;20203;-79
2021/09/08 06:09:52;;;;;;;7.57;5.93;;;23.30;99.90;;;;;;5033770;28;20382;-78
2021/09/08 06:12:20;;;;;;;7.45;6.00;;;23.30;99.90;;;;;;5023084;28;20729;-76
2021/09/08 06:14:46;;;;;;;6.40;5.50;;;23.30;99.90;;;;;;5048007;28;20202;-77
2021/09/08 06:17:15;;;;;;;6.50;5.95;;;23.40;99.90;;;;;;5037272;28;20199;-77
2021/09/08 06:19:42;;;;;;;6.38;5.78;;;23.40;99.90;;;;;;5036987;28;20682;-77
2021/09/08 06:22:09;;;;;;;7.60;6.88;;;23.40;99.90;;;;;;5035607;28;20203;-77
2021/09/08 06:24:36;;;;;;;6.88;6.20;;;23.40;99.90;;;;;;5037056;28;20214;-76
2021/09/08 06:27:04;;;;;;;5.93;5.32;;;23.40;99.90;;;;;;5035969;28;20635;-75
2021/09/08 06:29:31;;;;;;;7.68;6.20;;;23.30;99.90;;;;;;5036633;28;20227;-76
2021/09/08 06:31:57;;;;;;;6.18;5.40;;;23.30;99.90;;;;;;5035845;28;20234;-78
2021/09/08 06:34:26;;;;;;;5.95;5.43;;;23.40;99.90;;;;;;5035315;28;20625;-78
2021/09/08 06:36:53;;;;;;;8.35;6.22;;;23.30;99.90;;;;;;5036490;28;20219;-79
2021/09/08 06:39:21;;;;;;;6.40;5.90;;;23.50;99.90;;;;;;5036986;28;20247;-79
2021/09/08 06:41:48;;;;;;;5.97;5.47;;;23.70;99.90;;;;;;5036491;28;20213;-86
2021/09/08 06:44:17;;;;;;;8.25;6.00;;;23.60;99.90;;;;;;5037022;28;20730;-79
2021/09/08 06:46:44;;;;;;;6.25;5.55;;;23.50;99.90;;;;;;5036723;28;20203;-82
2021/09/08 06:49:11;;;;;;;8.63;6.55;;;23.60;99.90;;;;;;5037545;28;20265;-88
2021/09/08 06:51:40;;;;;;;5.97;4.97;;;23.60;99.90;;;;;;5037389;28;20209;-86
2021/09/08 06:54:07;;;;;;;5.53;5.03;;;23.70;99.90;;;;;;5036976;28;20207;-85
2021/09/08 06:56:34;;;;;;;7.63;5.95;;;23.70;99.90;;;;;;5036157;28;20215;-79
2021/09/08 06:59:01;;;;;;;5.95;5.40;;;23.70;99.90;;;;;;5030647;28;20215;-73
2021/09/08 07:01:27;;;;;;;6.13;5.50;;;23.70;99.90;;;;;;5032320;28;20550;-80
2021/09/08 07:03:55;;;;;;;8.07;5.47;;;23.90;99.90;;;;;;5032060;28;20679;-79
2021/09/08 07:06:23;;;;;;;6.88;5.97;;;24.10;99.90;;;;;;5034248;28;20270;-81
2021/09/08 07:08:52;;;;;;;6.15;5.55;;;24.20;99.90;;;;;;5033459;28;20274;-73
2021/09/08 07:11:20;;;;;;;7.22;5.05;;;24.00;99.90;;;;;;5033885;28;20216;-74
2021/09/08 07:13:47;;;;;;;6.40;5.50;;;24.00;99.90;;;;;;5031324;28;20211;-75
2021/09/08 07:16:14;;;;;;;6.32;5.72;;;24.00;99.90;;;;;;5033264;28;20207;-72
2021/09/08 07:18:41;;;;;;;8.15;5.15;;;24.00;99.90;;;;;;5028901;28;20207;-71
2021/09/08 07:21:08;;;;;;;9.70;5.65;;;24.10;99.90;;;;;;5029618;28;20215;-77
2021/09/08 07:23:35;;;;;;;10.50;5.88;;;24.30;99.90;;;;;;5025990;28;20262;-74
2021/09/08 07:26:03;;;;;;;6.70;4.78;;;24.20;99.90;;;;;;5022377;28;20253;-76
2021/09/08 07:28:30;;;;;;;5.93;5.32;;;24.20;99.90;;;;;;5032643;28;20644;-69
2021/09/08 07:30:57;;;;;;;5.45;4.97;;;24.40;99.90;;;;;;5032215;28;20253;-80
2021/09/08 07:33:25;;;;;;;6.35;4.97;;;24.30;99.90;;;;;;5032824;28;20204;-81
2021/09/08 07:35:52;;;;;;;7.75;5.15;;;24.30;99.90;;;;;;5031487;28;20214;-77
2021/09/08 07:38:21;;;;;;;6.10;4.93;;;24.50;99.90;;;;;;5032172;28;20650;-72
2021/09/08 07:40:49;;;;;;;9.10;4.88;;;24.60;99.90;;;;;;5029090;28;20258;-77
2021/09/08 07:43:18;;;;;;;5.50;5.00;;;24.40;99.90;;;;;;5030511;28;20334;-81
2021/09/08 07:45:46;;;;;;;5.85;5.25;;;24.60;99.90;;;;;;5031861;28;20668;-81
2021/09/08 07:48:13;;;;;;;7.68;5.70;;;24.60;99.90;;;;;;5030474;28;20622;-73
2021/09/08 07:50:41;;;;;;;5.32;4.82;;;24.70;99.90;;;;;;5032204;28;20207;-74
2021/09/08 07:53:10;;;;;;;5.70;5.25;;;24.90;99.90;;;;;;5031719;28;20632;-73
2021/09/08 07:55:37;;;;;;;7.43;5.25;;;25.00;99.90;;;;;;5032669;28;20203;-74
2021/09/08 07:58:04;;;;;;;5.70;4.93;;;25.10;99.90;;;;;;5031850;28;20717;-77
2021/09/08 08:00:35;;;;;;;6.75;4.85;;;24.90;99.90;;;;;;5022881;28;20258;-75
2021/09/08 08:03:03;;;;;;;8.70;5.45;;;24.90;99.90;;;;;;5027537;28;20261;-73
2021/09/08 08:05:31;;;;;;;6.82;5.63;;;24.90;99.90;;;;;;5029594;28;20200;-79
2021/09/08 08:07:59;;;;;;;6.63;5.15;;;25.30;99.90;;;;;;5025897;28;20204;-78
2021/09/08 08:10:26;;;;;;;10.45;5.95;;;25.00;99.90;;;;;;5025897;28;20235;-76
2021/09/08 08:12:53;;;;;;;5.75;5.15;;;24.90;99.90;;;;;;5026842;28;20679;-73
2021/09/08 08:15:20;;;;;;;10.55;5.50;;;24.80;99.90;;;;;;5028517;28;20636;-76
2021/09/08 08:17:49;;;;;;;8.13;5.13;;;25.20;99.90;;;;;;5025043;28;20508;-72
2021/09/08 08:20:17;;;;;;;5.93;5.30;;;25.40;99.90;;;;;;5024401;28;20219;-74
2021/09/08 08:22:44;;;;;;;6.55;4.70;;;25.60;99.90;;;;;;5018502;28;20266;-75
2021/09/08 08:25:13;;;;;;;6.30;5.35;;;25.30;99.90;;;;;;5020793;28;20208;-80
2021/09/08 08:27:41;;;;;;;7.80;5.35;;;24.90;99.90;;;;;;5014517;28;20216;-76
2021/09/08 08:30:11;;;;;;;6.18;4.75;;;25.30;99.90;;;;;;5012208;28;20367;-78
2021/09/08 08:32:38;;;;;;;8.85;5.10;;;25.60;99.90;;;;;;5015487;28;20208;-79
2021/09/08 08:35:08;;;;;;;5.80;4.68;;;25.60;99.90;;;;;;5011586;28;20208;-77
2021/09/08 08:37:35;;;;;;;7.55;5.18;;;25.30;99.90;;;;;;5020622;28;20273;-76
2021/09/08 08:40:03;;;;;;;7.05;4.90;;;25.20;99.90;;;;;;5025714;28;20211;-76
2021/09/08 08:42:30;;;;;;;5.13;4.63;;;25.20;99.90;;;;;;5019755;28;20576;-76
2021/09/08 08:44:58;;;;;;;6.78;5.75;;;25.30;99.90;;;;;;5013912;28;20207;-72
2021/09/08 08:47:26;;;;;;;5.93;5.32;;;25.40;99.90;;;;;;5024380;28;20211;-76
2021/09/08 08:49:54;;;;;;;5.10;4.63;;;25.50;99.90;;;;;;5015938;28;20232;-73
2021/09/08 08:52:22;;;;;;;5.90;5.40;;;25.60;99.90;;;;;;5017218;28;20207;-80
2021/09/08 08:54:50;;;;;;;7.93;5.45;;;25.40;99.90;;;;;;5022587;28;20266;-71
2021/09/08 08:57:18;;;;;;;6.38;5.70;;;25.30;99.90;;;;;;5029378;28;20207;-77
2021/09/08 08:59:47;;;;;;;6.55;5.22;;;25.30;99.90;;;;;;5029926;28;20298;-82
2021/09/08 09:02:23;;;;;;;4.93;4.53;;;25.30;99.90;;;;;;5038442;28;20203;-74
2021/09/08 09:04:51;;;;;;;6.07;4.25;;;25.30;99.90;;;;;;5030224;28;20268;-79
2021/09/08 09:07:31;;;;;;;9.88;4.88;;;25.30;99.90;;;;;;5012544;28;20208;-74
2021/09/08 09:09:59;;;;;;;7.55;5.13;;;25.30;99.90;;;;;;5025218;28;20289;-76
2021/09/08 09:12:28;;;;;;;7.60;6.03;;;25.50;99.90;;;;;;5021246;28;20208;-80
2021/09/08 09:15:00;;;;;;;5.95;4.78;;;25.70;99.90;;;;;;5017679;28;20353;-73
2021/09/08 09:17:29;;;;;;;6.03;4.95;;;25.60;99.90;;;;;;5013450;28;20315;-77
2021/09/08 09:19:57;;;;;;;5.65;4.60;;;25.40;99.90;;;;;;5011620;28;20208;-76
2021/09/08 09:22:35;;;;;;;9.63;4.80;;;25.50;99.90;;;;;;5013848;28;20559;-74
2021/09/08 09:25:02;;;;;;;5.30;4.80;;;25.50;99.90;;;;;;5010764;28;20207;-78
2021/09/08 09:27:33;;;;;;;7.70;5.47;;;25.70;99.90;;;;;;5013455;28;20212;-76
2021/09/08 09:30:05;;;;;;;9.68;5.20;;;26.50;99.90;;;;;;5020754;28;20219;-72
2021/09/08 09:32:37;;;;;;;6.20;5.47;;;26.10;99.90;;;;;;5019860;28;20227;-75
2021/09/08 09:35:06;;;;;;;9.85;5.32;;;26.00;99.90;;;;;;5012203;28;20254;-73
2021/09/08 09:37:35;;;;;;;5.65;5.05;;;26.40;99.90;;;;;;5026516;28;20686;-76
2021/09/08 09:40:05;;;;;;;7.60;4.60;;;26.60;99.90;;;;;;5027007;28;20259;-82
2021/09/08 09:42:32;;;;;;;9.18;4.40;;;26.10;99.90;;;;;;5017574;28;20558;-81
2021/09/08 09:45:05;;;;;;;7.00;5.50;;;26.00;99.90;;;;;;5027537;28;20746;-79
2021/09/08 09:47:35;;;;;;;7.65;5.30;;;26.00;99.90;;;;;;5018862;28;20589;-80
2021/09/08 09:50:05;;;;;;;6.55;4.70;;;26.50;99.90;;;;;;5012726;28;20711;-78
2021/09/08 09:52:35;;;;;;;4.93;4.32;;;26.70;99.90;;;;;;5013974;28;20204;-75
2021/09/08 09:55:02;;;;;;;7.65;5.05;;;26.50;99.90;;;;;;5018631;28;20262;-78
2021/09/08 09:57:30;;;;;;;7.20;4.28;;;26.40;99.90;;;;;;5019558;28;20337;-77
2021/09/08 09:59:58;;;;;;;4.85;4.13;;;26.40;99.90;;;;;;5029591;28;20685;-77
2021/09/08 10:02:26;;;;;;;5.03;4.60;;;26.60;99.90;;;;;;5027270;28;20238;-79
2021/09/08 10:04:53;;;;;;;5.10;4.60;;;26.70;99.90;;;;;;5027652;28;20207;-76
2021/09/08 10:07:23;;;;;;;4.95;4.55;;;27.40;99.90;;;;;;5029840;28;20285;-75
2021/09/08 10:09:58;;;;;;;5.05;4.57;;;27.10;99.90;;;;;;5027323;28;20319;-75
2021/09/08 10:12:32;;;;;;;5.22;4.57;;;26.70;99.90;;;;;;5021315;28;20261;-75
2021/09/08 10:15:00;;;;;;;7.35;4.63;;;26.60;99.90;;;;;;5025295;28;20207;-78
2021/09/08 10:17:33;;;;;;;4.97;4.07;;;26.40;99.90;;;;;;5026168;28;20663;-77
2021/09/08 10:20:06;;;;;;;4.70;4.30;;;26.40;99.90;;;;;;5021334;28;20257;-76
2021/09/08 10:22:37;;;;;;;5.40;3.83;;;26.80;99.90;;;;;;5029565;28;20265;-76
2021/09/08 10:25:11;;;;;;;7.60;4.55;;;26.90;99.90;;;;;;5028452;28;20203;-79
2021/09/08 10:27:38;;;;;;;5.63;4.45;;;26.70;99.90;;;;;;5028734;28;20265;-78
2021/09/08 10:30:07;;;;;;;6.07;4.80;;;26.80;99.90;;;;;;5028987;28;20231;-79
2021/09/08 10:32:35;;;;;;;6.80;5.20;;;26.70;99.90;;;;;;5028195;28;20253;-76
2021/09/08 10:35:12;;;;;;;8.38;5.25;;;26.90;99.90;;;;;;5026158;28;20257;-72
2021/09/08 10:37:39;;;;;;;6.05;4.78;;;27.00;99.90;;;;;;5026750;28;20219;-74
2021/09/08 10:40:11;;;;;;;5.93;5.35;;;26.80;99.90;;;;;;5028048;28;20207;-79
2021/09/08 10:42:56;;;;;;;7.07;4.82;;;26.60;99.90;;;;;;5022802;28;20222;-78
2021/09/08 10:45:25;;;;;;;5.72;5.18;;;26.60;99.90;;;;;;5030053;28;20199;-79
2021/09/08 10:47:53;;;;;;;8.38;5.15;;;26.40;99.90;;;;;;5031405;28;20262;-78
2021/09/08 10:50:46;;;;;;;12.38;5.88;;;26.60;99.90;;;;;;5031783;28;20254;-76
2021/09/08 10:53:30;;;;;;;4.85;4.45;;;26.80;99.90;;;;;;4984453;28;20204;-79
2021/09/08 10:56:00;;;;;;;7.93;5.60;;;27.00;99.90;;;;;;5031849;28;20207;-79
2021/09/08 10:58:54;;;;;;;6.18;3.72;;;27.20;99.90;;;;;;5032614;28;20637;-75
2021/09/08 11:01:21;;;;;;;4.95;4.15;;;27.40;99.90;;;;;;5033630;28;20208;-72
2021/09/08 11:03:50;;;;;;;5.28;4.57;;;27.60;99.90;;;;;;5032189;28;20203;-72
2021/09/08 11:06:17;;;;;;;5.53;4.55;;;27.80;99.90;;;;;;5028452;28;20208;-72
2021/09/08 11:08:44;;;;;;;5.30;4.78;;;27.70;99.90;;;;;;5032466;28;20203;-72
2021/09/08 11:11:16;;;;;;;10.75;5.07;;;27.30;99.90;;;;;;5031710;28;20785;-75
2021/09/08 11:13:44;;;;;;;5.78;3.97;;;27.10;99.90;;;;;;5029217;28;20206;-72
2021/09/08 11:16:19;;;;;;;5.07;4.07;;;27.40;99.90;;;;;;5032200;28;20208;-74
2021/09/08 11:18:47;;;;;;;7.65;4.38;;;27.60;99.90;;;;;;5029294;28;20215;-84
2021/09/08 11:21:16;;;;;;;4.05;3.63;;;27.90;99.90;;;;;;5028335;28;20230;-76
2021/09/08 11:23:43;;;;;;;5.68;4.15;;;27.40;99.90;;;;;;5032943;28;20294;-74
2021/09/08 11:26:11;;;;;;;7.60;4.53;;;27.30;99.90;;;;;;5026318;28;20204;-76
2021/09/08 11:28:41;;;;;;;7.95;5.25;;;27.40;99.90;;;;;;5015487;28;20259;-77
2021/09/08 11:31:14;;;;;;;6.53;4.57;;;27.30;99.90;;;;;;5019557;28;20267;-75
2021/09/08 11:33:41;;;;;;;6.50;3.70;;;27.50;99.90;;;;;;5015815;28;20216;-72
2021/09/08 11:36:14;;;;;;;5.18;4.75;;;27.50;99.90;;;;;;5017928;28;20215;-73
2021/09/08 11:38:56;;;;;;;5.32;4.38;;;27.70;99.90;;;;;;5018727;28;20212;-73
2021/09/08 11:41:25;;;;;;;7.63;4.57;;;28.10;99.90;;;;;;5018135;28;20211;-76
2021/09/08 11:43:55;;;;;;;6.65;4.95;;;28.50;99.90;;;;;;5012174;28;20263;-75
2021/09/08 11:46:25;;;;;;;6.15;4.15;;;28.20;99.90;;;;;;5013932;28;20204;-77
2021/09/08 11:48:53;;;;;;;9.35;4.82;;;27.80;99.90;;;;;;5012226;28;20263;-76
2021/09/08 11:51:22;;;;;;;8.93;5.43;;;27.80;99.90;;;;;;5015441;28;20281;-73
2021/09/08 11:53:51;;;;;;;5.05;4.32;;;28.30;99.90;;;;;;5011346;28;20208;-76
2021/09/08 11:56:20;;;;;;;6.32;4.32;;;28.10;99.90;;;;;;5013731;28;20618;-73
2021/09/08 11:58:52;;;;;;;3.72;3.42;;;28.30;99.90;;;;;;5013867;28;20231;-72
2021/09/08 12:01:21;;;;;;;5.85;4.18;;;28.70;99.90;;;;;;5012744;28;20299;-75
2021/09/08 12:03:51;;;;;;;5.63;4.25;;;28.60;99.90;;;;;;5013132;28;20651;-75
2021/09/08 12:06:20;;;;;;;9.93;4.10;;;28.10;99.90;;;;;;5012185;28;20266;-74
2021/09/08 12:08:53;;;;;;;6.40;4.25;;;27.90;99.90;;;;;;5011628;28;20210;-75
2021/09/08 12:11:40;;;;;;;4.20;3.80;;;28.10;99.90;;;;;;5010845;28;20773;-75
2021/09/08 12:14:18;;;;;;;7.50;4.50;;;28.00;99.90;;;;;;5021071;28;20756;-74
2021/09/08 12:16:47;;;;;;;6.78;4.57;;;28.00;99.90;;;;;;5031817;28;20261;-71
2021/09/08 12:19:16;;;;;;;14.57;5.00;;;28.40;99.90;;;;;;5024804;28;20553;-70
2021/09/08 12:21:44;;;;;;;5.63;5.10;;;28.60;99.90;;;;;;5027245;28;20732;-72
2021/09/08 12:24:24;;;;;;;4.65;4.22;;;28.40;99.90;;;;;;5030972;28;20261;-70
2021/09/08 12:26:52;;;;;;;5.35;3.95;;;28.00;99.90;;;;;;5017000;28;20203;-74
2021/09/08 12:29:19;;;;;;;4.75;4.30;;;27.80;99.90;;;;;;5027749;28;20204;-77
2021/09/08 12:31:53;;;;;;;5.20;4.30;;;28.50;99.90;;;;;;5019242;28;20343;-73
2021/09/08 12:34:21;;;;;;;7.35;4.22;;;28.90;99.90;;;;;;5024333;28;20243;-73
2021/09/08 12:36:49;;;;;;;5.20;3.83;;;29.40;99.90;;;;;;5018991;28;20212;-75
2021/09/08 12:39:19;;;;;;;8.50;4.78;;;28.90;99.90;;;;;;5021807;28;20208;-78
2021/09/08 12:41:59;;;;;;;7.80;4.85;;;29.10;99.90;;;;;;5025770;28;20208;-86
2021/09/08 12:44:33;;;;;;;5.60;4.47;;;28.90;99.90;;;;;;5025539;28;20245;-70
2021/09/08 12:47:12;;;;;;;5.07;4.68;;;29.00;99.90;;;;;;5021315;28;20741;-86
2021/09/08 12:49:40;;;;;;;5.45;3.80;;;28.90;99.90;;;;;;5019836;28;20208;-76
2021/09/08 12:52:10;;;;;;;4.88;4.38;;;29.50;99.90;;;;;;5022354;28;20213;-76